sensor_id;sensor_type;location;lat;lon;timestamp;P1;durP1;ratioP1;P2;durP2;ratioP2
4508;SDS011;2267;48.816;9.230;2024-01-15T00:00:57;16.47;;;14.67;;
4508;SDS011;2267;48.816;9.230;2024-01-15T00:03:24;17.73;;;15.40;;
4508;SDS011;2267;48.816;9.230;2024-01-15T00:05:51;18.80;;;16.33;;
4508;SDS011;2267;48.816;9.230;2024-01-15T00:08:18;16.60;;;14.83;;
4508;SDS011;2267;48.816;9.230;2024-01-15T00:10:45;18.40;;;16.50;;
4508;SDS011;2267;48.816;9.230;2024-01-15T00:13:12;17.80;;;15.90;;
4508;SDS011;2267;48.816;9.230;2024-01-15T00:15:39;18.20;;;16.13;;
4508;SDS011;2267;48.816;9.230;2024-01-15T00:18:06;18.27;;;16.27;;
4508;SDS011;2267;48.816;9.230;2024-01-15T00:20:34;18.80;;;15.77;;
4508;SDS011;2267;48.816;9.230;2024-01-15T00:23:01;15.50;;;13.90;;
4508;SDS011;2267;48.816;9.230;2024-01-15T00:25:28;16.60;;;14.90;;
4508;SDS011;2267;48.816;9.230;2024-01-15T00:27:54;17.93;;;15.97;;
4508;SDS011;2267;48.816;9.230;2024-01-15T00:30:21;18.50;;;16.57;;
4508;SDS011;2267;48.816;9.230;2024-01-15T00:32:48;16.40;;;14.73;;
4508;SDS011;2267;48.816;9.230;2024-01-15T00:35:16;16.37;;;14.63;;
4508;SDS011;2267;48.816;9.230;2024-01-15T00:37:42;18.40;;;15.20;;
4508;SDS011;2267;48.816;9.230;2024-01-15T00:40:09;19.63;;;16.70;;
4508;SDS011;2267;48.816;9.230;2024-01-15T00:42:36;15.67;;;13.73;;
4508;SDS011;2267;48.816;9.230;2024-01-15T00:45:04;17.50;;;15.70;;
4508;SDS011;2267;48.816;9.230;2024-01-15T00:47:33;16.83;;;15.13;;
4508;SDS011;2267;48.816;9.230;2024-01-15T00:50:01;16.77;;;14.90;;
4508;SDS011;2267;48.816;9.230;2024-01-15T00:52:28;17.50;;;15.50;;
4508;SDS011;2267;48.816;9.230;2024-01-15T00:54:55;16.70;;;14.97;;
4508;SDS011;2267;48.816;9.230;2024-01-15T00:57:22;19.07;;;15.63;;
4508;SDS011;2267;48.816;9.230;2024-01-15T00:59:49;16.53;;;14.83;;
4508;SDS011;2267;48.816;9.230;2024-01-15T01:02:16;17.40;;;15.47;;
4508;SDS011;2267;48.816;9.230;2024-01-15T01:04:42;17.27;;;15.47;;
4508;SDS011;2267;48.816;9.230;2024-01-15T01:07:09;17.20;;;15.40;;
4508;SDS011;2267;48.816;9.230;2024-01-15T01:09:36;17.20;;;15.50;;
4508;SDS011;2267;48.816;9.230;2024-01-15T01:12:03;16.53;;;14.80;;
4508;SDS011;2267;48.816;9.230;2024-01-15T01:14:31;16.60;;;13.60;;
4508;SDS011;2267;48.816;9.230;2024-01-15T01:16:58;16.80;;;14.43;;
4508;SDS011;2267;48.816;9.230;2024-01-15T01:19:25;18.17;;;14.77;;
4508;SDS011;2267;48.816;9.230;2024-01-15T01:21:52;17.37;;;14.93;;
4508;SDS011;2267;48.816;9.230;2024-01-15T01:24:19;16.73;;;14.90;;
4508;SDS011;2267;48.816;9.230;2024-01-15T01:26:46;16.20;;;14.60;;
4508;SDS011;2267;48.816;9.230;2024-01-15T01:29:13;16.53;;;13.73;;
4508;SDS011;2267;48.816;9.230;2024-01-15T01:31:43;15.10;;;13.57;;
4508;SDS011;2267;48.816;9.230;2024-01-15T01:34:13;15.93;;;14.23;;
4508;SDS011;2267;48.816;9.230;2024-01-15T01:36:40;15.97;;;13.50;;
4508;SDS011;2267;48.816;9.230;2024-01-15T01:39:08;15.53;;;13.70;;
4508;SDS011;2267;48.816;9.230;2024-01-15T01:41:35;14.27;;;12.90;;
4508;SDS011;2267;48.816;9.230;2024-01-15T01:44:02;13.30;;;11.90;;
4508;SDS011;2267;48.816;9.230;2024-01-15T01:46:29;15.13;;;13.47;;
4508;SDS011;2267;48.816;9.230;2024-01-15T01:48:57;16.73;;;13.70;;
4508;SDS011;2267;48.816;9.230;2024-01-15T01:51:27;14.03;;;12.50;;
4508;SDS011;2267;48.816;9.230;2024-01-15T01:53:54;14.07;;;12.57;;
4508;SDS011;2267;48.816;9.230;2024-01-15T01:56:21;13.80;;;12.40;;
4508;SDS011;2267;48.816;9.230;2024-01-15T01:58:49;15.30;;;13.80;;
4508;SDS011;2267;48.816;9.230;2024-01-15T02:01:15;13.17;;;11.77;;
4508;SDS011;2267;48.816;9.230;2024-01-15T02:03:43;13.87;;;12.47;;
4508;SDS011;2267;48.816;9.230;2024-01-15T02:06:10;16.00;;;13.63;;
4508;SDS011;2267;48.816;9.230;2024-01-15T02:08:37;14.13;;;12.23;;
4508;SDS011;2267;48.816;9.230;2024-01-15T02:11:04;14.07;;;12.57;;
4508;SDS011;2267;48.816;9.230;2024-01-15T02:13:31;13.10;;;11.80;;
4508;SDS011;2267;48.816;9.230;2024-01-15T02:15:58;14.90;;;12.17;;
4508;SDS011;2267;48.816;9.230;2024-01-15T02:18:25;12.30;;;11.00;;
4508;SDS011;2267;48.816;9.230;2024-01-15T02:20:52;14.63;;;13.10;;
4508;SDS011;2267;48.816;9.230;2024-01-15T02:23:19;13.77;;;12.30;;
4508;SDS011;2267;48.816;9.230;2024-01-15T02:25:46;14.30;;;12.90;;
4508;SDS011;2267;48.816;9.230;2024-01-15T02:28:16;14.50;;;12.63;;
4508;SDS011;2267;48.816;9.230;2024-01-15T02:30:44;13.87;;;12.47;;
4508;SDS011;2267;48.816;9.230;2024-01-15T02:33:12;15.53;;;13.93;;
4508;SDS011;2267;48.816;9.230;2024-01-15T02:35:39;16.43;;;13.30;;
4508;SDS011;2267;48.816;9.230;2024-01-15T02:38:07;13.63;;;12.17;;
4508;SDS011;2267;48.816;9.230;2024-01-15T02:40:34;13.90;;;12.50;;
4508;SDS011;2267;48.816;9.230;2024-01-15T02:43:01;13.97;;;12.57;;
4508;SDS011;2267;48.816;9.230;2024-01-15T02:45:28;14.73;;;13.03;;
4508;SDS011;2267;48.816;9.230;2024-01-15T02:47:55;13.40;;;12.10;;
4508;SDS011;2267;48.816;9.230;2024-01-15T02:50:22;14.83;;;13.33;;
4508;SDS011;2267;48.816;9.230;2024-01-15T02:52:49;13.50;;;12.20;;
4508;SDS011;2267;48.816;9.230;2024-01-15T02:55:16;13.90;;;12.50;;
4508;SDS011;2267;48.816;9.230;2024-01-15T02:57:43;14.53;;;13.03;;
4508;SDS011;2267;48.816;9.230;2024-01-15T03:00:10;14.20;;;12.70;;
4508;SDS011;2267;48.816;9.230;2024-01-15T03:02:38;15.30;;;13.13;;
4508;SDS011;2267;48.816;9.230;2024-01-15T03:05:10;12.00;;;10.90;;
4508;SDS011;2267;48.816;9.230;2024-01-15T03:07:37;13.60;;;12.07;;
4508;SDS011;2267;48.816;9.230;2024-01-15T03:10:04;14.53;;;13.00;;
4508;SDS011;2267;48.816;9.230;2024-01-15T03:12:32;14.87;;;13.27;;
4508;SDS011;2267;48.816;9.230;2024-01-15T03:14:59;15.00;;;13.43;;
4508;SDS011;2267;48.816;9.230;2024-01-15T03:17:26;15.53;;;13.90;;
4508;SDS011;2267;48.816;9.230;2024-01-15T03:19:53;13.23;;;11.83;;
4508;SDS011;2267;48.816;9.230;2024-01-15T03:22:20;15.13;;;13.53;;
4508;SDS011;2267;48.816;9.230;2024-01-15T03:24:47;12.90;;;11.60;;
4508;SDS011;2267;48.816;9.230;2024-01-15T03:27:14;15.07;;;13.43;;
4508;SDS011;2267;48.816;9.230;2024-01-15T03:29:41;14.30;;;12.80;;
4508;SDS011;2267;48.816;9.230;2024-01-15T03:32:08;15.73;;;13.37;;
4508;SDS011;2267;48.816;9.230;2024-01-15T03:34:35;14.00;;;11.97;;
4508;SDS011;2267;48.816;9.230;2024-01-15T03:37:02;15.47;;;12.70;;
4508;SDS011;2267;48.816;9.230;2024-01-15T03:39:29;14.17;;;12.27;;
4508;SDS011;2267;48.816;9.230;2024-01-15T03:41:57;13.80;;;11.90;;
4508;SDS011;2267;48.816;9.230;2024-01-15T03:44:24;15.07;;;13.50;;
4508;SDS011;2267;48.816;9.230;2024-01-15T03:46:51;16.33;;;12.60;;
4508;SDS011;2267;48.816;9.230;2024-01-15T03:49:17;17.17;;;14.10;;
4508;SDS011;2267;48.816;9.230;2024-01-15T03:51:45;13.40;;;12.00;;
4508;SDS011;2267;48.816;9.230;2024-01-15T03:54:12;13.33;;;12.07;;
4508;SDS011;2267;48.816;9.230;2024-01-15T03:56:38;16.33;;;13.57;;
4508;SDS011;2267;48.816;9.230;2024-01-15T03:59:05;14.83;;;13.30;;
4508;SDS011;2267;48.816;9.230;2024-01-15T04:01:32;13.60;;;12.17;;
4508;SDS011;2267;48.816;9.230;2024-01-15T04:03:59;14.43;;;12.93;;
4508;SDS011;2267;48.816;9.230;2024-01-15T04:06:26;13.90;;;12.40;;
4508;SDS011;2267;48.816;9.230;2024-01-15T04:08:53;13.97;;;12.13;;
4508;SDS011;2267;48.816;9.230;2024-01-15T04:11:20;15.77;;;13.23;;
4508;SDS011;2267;48.816;9.230;2024-01-15T04:13:46;14.00;;;12.00;;
4508;SDS011;2267;48.816;9.230;2024-01-15T04:16:13;15.30;;;12.90;;
4508;SDS011;2267;48.816;9.230;2024-01-15T04:18:40;13.37;;;12.10;;
4508;SDS011;2267;48.816;9.230;2024-01-15T04:21:07;13.80;;;12.10;;
4508;SDS011;2267;48.816;9.230;2024-01-15T04:23:34;13.00;;;11.70;;
4508;SDS011;2267;48.816;9.230;2024-01-15T04:26:00;13.43;;;12.03;;
4508;SDS011;2267;48.816;9.230;2024-01-15T04:28:27;11.90;;;10.67;;
4508;SDS011;2267;48.816;9.230;2024-01-15T04:30:54;13.33;;;11.13;;
4508;SDS011;2267;48.816;9.230;2024-01-15T04:33:21;10.67;;;9.57;;
4508;SDS011;2267;48.816;9.230;2024-01-15T04:35:48;13.00;;;11.20;;
4508;SDS011;2267;48.816;9.230;2024-01-15T04:38:15;16.70;;;12.50;;
4508;SDS011;2267;48.816;9.230;2024-01-15T04:40:42;14.10;;;10.70;;
4508;SDS011;2267;48.816;9.230;2024-01-15T04:43:09;12.60;;;10.10;;
4508;SDS011;2267;48.816;9.230;2024-01-15T04:45:36;11.90;;;10.40;;
4508;SDS011;2267;48.816;9.230;2024-01-15T04:48:03;13.47;;;11.20;;
4508;SDS011;2267;48.816;9.230;2024-01-15T04:50:30;12.83;;;11.33;;
4508;SDS011;2267;48.816;9.230;2024-01-15T04:52:57;14.10;;;11.57;;
4508;SDS011;2267;48.816;9.230;2024-01-15T04:55:23;11.87;;;10.63;;
4508;SDS011;2267;48.816;9.230;2024-01-15T04:57:50;12.53;;;10.83;;
4508;SDS011;2267;48.816;9.230;2024-01-15T05:00:17;10.77;;;9.70;;
4508;SDS011;2267;48.816;9.230;2024-01-15T05:02:44;12.23;;;10.40;;
4508;SDS011;2267;48.816;9.230;2024-01-15T05:05:11;12.23;;;11.03;;
4508;SDS011;2267;48.816;9.230;2024-01-15T05:07:38;12.03;;;10.73;;
4508;SDS011;2267;48.816;9.230;2024-01-15T05:10:05;12.40;;;11.20;;
4508;SDS011;2267;48.816;9.230;2024-01-15T05:12:33;12.57;;;11.00;;
4508;SDS011;2267;48.816;9.230;2024-01-15T05:15:00;11.00;;;9.90;;
4508;SDS011;2267;48.816;9.230;2024-01-15T05:17:27;11.97;;;10.70;;
4508;SDS011;2267;48.816;9.230;2024-01-15T05:19:54;12.40;;;11.10;;
4508;SDS011;2267;48.816;9.230;2024-01-15T05:22:21;12.07;;;10.07;;
4508;SDS011;2267;48.816;9.230;2024-01-15T05:24:51;12.43;;;11.10;;
4508;SDS011;2267;48.816;9.230;2024-01-15T05:27:18;13.93;;;12.40;;
4508;SDS011;2267;48.816;9.230;2024-01-15T05:29:45;12.13;;;10.93;;
4508;SDS011;2267;48.816;9.230;2024-01-15T05:32:12;12.10;;;10.90;;
4508;SDS011;2267;48.816;9.230;2024-01-15T05:34:39;11.33;;;10.30;;
4508;SDS011;2267;48.816;9.230;2024-01-15T05:37:06;11.13;;;9.57;;
4508;SDS011;2267;48.816;9.230;2024-01-15T05:39:33;13.10;;;11.60;;
4508;SDS011;2267;48.816;9.230;2024-01-15T05:42:00;12.63;;;11.33;;
4508;SDS011;2267;48.816;9.230;2024-01-15T05:44:27;10.73;;;9.67;;
4508;SDS011;2267;48.816;9.230;2024-01-15T05:46:54;11.63;;;10.50;;
4508;SDS011;2267;48.816;9.230;2024-01-15T05:49:20;10.00;;;8.60;;
4508;SDS011;2267;48.816;9.230;2024-01-15T05:51:48;10.37;;;9.00;;
4508;SDS011;2267;48.816;9.230;2024-01-15T05:54:15;11.17;;;10.17;;
4508;SDS011;2267;48.816;9.230;2024-01-15T05:56:41;11.83;;;9.03;;
4508;SDS011;2267;48.816;9.230;2024-01-15T05:59:08;11.37;;;10.17;;
4508;SDS011;2267;48.816;9.230;2024-01-15T06:01:40;12.03;;;9.87;;
4508;SDS011;2267;48.816;9.230;2024-01-15T06:04:07;10.80;;;9.70;;
4508;SDS011;2267;48.816;9.230;2024-01-15T06:06:33;11.77;;;10.67;;
4508;SDS011;2267;48.816;9.230;2024-01-15T06:09:00;11.77;;;10.57;;
4508;SDS011;2267;48.816;9.230;2024-01-15T06:11:32;12.67;;;11.20;;
4508;SDS011;2267;48.816;9.230;2024-01-15T06:13:59;14.13;;;12.37;;
4508;SDS011;2267;48.816;9.230;2024-01-15T06:16:27;13.40;;;12.10;;
4508;SDS011;2267;48.816;9.230;2024-01-15T06:18:55;13.47;;;12.07;;
4508;SDS011;2267;48.816;9.230;2024-01-15T06:21:22;11.90;;;10.40;;
4508;SDS011;2267;48.816;9.230;2024-01-15T06:23:49;12.60;;;11.30;;
4508;SDS011;2267;48.816;9.230;2024-01-15T06:26:16;13.37;;;12.07;;
4508;SDS011;2267;48.816;9.230;2024-01-15T06:28:42;12.33;;;11.13;;
4508;SDS011;2267;48.816;9.230;2024-01-15T06:31:09;11.67;;;10.47;;
4508;SDS011;2267;48.816;9.230;2024-01-15T06:33:36;12.20;;;11.00;;
4508;SDS011;2267;48.816;9.230;2024-01-15T06:36:04;16.50;;;13.63;;
4508;SDS011;2267;48.816;9.230;2024-01-15T06:38:32;13.93;;;11.87;;
4508;SDS011;2267;48.816;9.230;2024-01-15T06:40:58;14.30;;;12.83;;
4508;SDS011;2267;48.816;9.230;2024-01-15T06:43:25;16.00;;;13.67;;
4508;SDS011;2267;48.816;9.230;2024-01-15T06:45:52;13.97;;;10.90;;
4508;SDS011;2267;48.816;9.230;2024-01-15T06:48:19;14.60;;;13.23;;
4508;SDS011;2267;48.816;9.230;2024-01-15T06:50:46;15.73;;;14.00;;
4508;SDS011;2267;48.816;9.230;2024-01-15T06:53:13;16.33;;;13.70;;
4508;SDS011;2267;48.816;9.230;2024-01-15T06:55:40;11.83;;;10.57;;
4508;SDS011;2267;48.816;9.230;2024-01-15T06:58:07;12.80;;;11.60;;
4508;SDS011;2267;48.816;9.230;2024-01-15T07:00:34;11.60;;;10.50;;
4508;SDS011;2267;48.816;9.230;2024-01-15T07:03:01;10.70;;;9.60;;
4508;SDS011;2267;48.816;9.230;2024-01-15T07:05:28;13.80;;;10.30;;
4508;SDS011;2267;48.816;9.230;2024-01-15T07:07:56;12.83;;;10.57;;
4508;SDS011;2267;48.816;9.230;2024-01-15T07:10:23;11.43;;;10.23;;
4508;SDS011;2267;48.816;9.230;2024-01-15T07:12:50;11.47;;;10.37;;
4508;SDS011;2267;48.816;9.230;2024-01-15T07:15:17;10.10;;;8.73;;
4508;SDS011;2267;48.816;9.230;2024-01-15T07:17:44;13.00;;;9.97;;
4508;SDS011;2267;48.816;9.230;2024-01-15T07:20:11;11.67;;;10.57;;
4508;SDS011;2267;48.816;9.230;2024-01-15T07:22:38;13.60;;;10.30;;
4508;SDS011;2267;48.816;9.230;2024-01-15T07:25:05;14.03;;;10.17;;
4508;SDS011;2267;48.816;9.230;2024-01-15T07:27:33;11.57;;;10.30;;
4508;SDS011;2267;48.816;9.230;2024-01-15T07:30:00;12.17;;;10.33;;
4508;SDS011;2267;48.816;9.230;2024-01-15T07:32:28;11.40;;;9.57;;
4508;SDS011;2267;48.816;9.230;2024-01-15T07:34:55;10.20;;;9.20;;
4508;SDS011;2267;48.816;9.230;2024-01-15T07:37:23;11.67;;;8.90;;
4508;SDS011;2267;48.816;9.230;2024-01-15T07:39:50;9.87;;;8.70;;
4508;SDS011;2267;48.816;9.230;2024-01-15T07:42:17;10.07;;;9.17;;
4508;SDS011;2267;48.816;9.230;2024-01-15T07:44:44;9.43;;;8.40;;
4508;SDS011;2267;48.816;9.230;2024-01-15T07:47:11;9.83;;;8.90;;
4508;SDS011;2267;48.816;9.230;2024-01-15T07:49:38;10.93;;;9.83;;
4508;SDS011;2267;48.816;9.230;2024-01-15T07:52:05;10.97;;;9.80;;
4508;SDS011;2267;48.816;9.230;2024-01-15T07:54:32;9.50;;;8.50;;
4508;SDS011;2267;48.816;9.230;2024-01-15T07:57:00;10.67;;;9.43;;
4508;SDS011;2267;48.816;9.230;2024-01-15T07:59:29;10.30;;;8.20;;
4508;SDS011;2267;48.816;9.230;2024-01-15T08:01:56;9.53;;;8.70;;
4508;SDS011;2267;48.816;9.230;2024-01-15T08:04:24;9.90;;;8.80;;
4508;SDS011;2267;48.816;9.230;2024-01-15T08:06:51;9.87;;;8.97;;
4508;SDS011;2267;48.816;9.230;2024-01-15T08:09:19;11.50;;;9.57;;
4508;SDS011;2267;48.816;9.230;2024-01-15T08:11:46;10.53;;;9.30;;
4508;SDS011;2267;48.816;9.230;2024-01-15T08:14:12;12.80;;;10.30;;
4508;SDS011;2267;48.816;9.230;2024-01-15T08:16:39;9.90;;;8.90;;
4508;SDS011;2267;48.816;9.230;2024-01-15T08:19:07;10.10;;;9.10;;
4508;SDS011;2267;48.816;9.230;2024-01-15T08:21:34;12.47;;;9.70;;
4508;SDS011;2267;48.816;9.230;2024-01-15T08:24:01;10.00;;;9.00;;
4508;SDS011;2267;48.816;9.230;2024-01-15T08:26:29;10.43;;;9.33;;
4508;SDS011;2267;48.816;9.230;2024-01-15T08:28:56;9.60;;;8.60;;
4508;SDS011;2267;48.816;9.230;2024-01-15T08:31:23;9.57;;;8.60;;
4508;SDS011;2267;48.816;9.230;2024-01-15T08:33:50;9.50;;;8.50;;
4508;SDS011;2267;48.816;9.230;2024-01-15T08:36:18;10.93;;;9.87;;
4508;SDS011;2267;48.816;9.230;2024-01-15T08:38:45;10.83;;;8.90;;
4508;SDS011;2267;48.816;9.230;2024-01-15T08:41:13;12.67;;;9.60;;
4508;SDS011;2267;48.816;9.230;2024-01-15T08:43:40;10.40;;;8.73;;
4508;SDS011;2267;48.816;9.230;2024-01-15T08:46:07;10.50;;;9.40;;
4508;SDS011;2267;48.816;9.230;2024-01-15T08:48:34;11.30;;;9.27;;
4508;SDS011;2267;48.816;9.230;2024-01-15T08:51:01;11.10;;;9.00;;
4508;SDS011;2267;48.816;9.230;2024-01-15T08:53:28;11.97;;;9.10;;
4508;SDS011;2267;48.816;9.230;2024-01-15T08:55:55;10.43;;;9.43;;
4508;SDS011;2267;48.816;9.230;2024-01-15T08:58:23;11.33;;;10.20;;
4508;SDS011;2267;48.816;9.230;2024-01-15T09:00:50;10.10;;;9.07;;
4508;SDS011;2267;48.816;9.230;2024-01-15T09:03:17;10.67;;;8.93;;
4508;SDS011;2267;48.816;9.230;2024-01-15T09:05:44;8.90;;;7.30;;
4508;SDS011;2267;48.816;9.230;2024-01-15T09:08:11;8.47;;;7.53;;
4508;SDS011;2267;48.816;9.230;2024-01-15T09:10:38;11.10;;;7.43;;
4508;SDS011;2267;48.816;9.230;2024-01-15T09:13:05;9.50;;;7.67;;
4508;SDS011;2267;48.816;9.230;2024-01-15T09:15:31;7.73;;;6.93;;
4508;SDS011;2267;48.816;9.230;2024-01-15T09:17:58;7.70;;;6.90;;
4508;SDS011;2267;48.816;9.230;2024-01-15T09:20:26;7.63;;;6.90;;
4508;SDS011;2267;48.816;9.230;2024-01-15T09:22:53;8.80;;;7.50;;
4508;SDS011;2267;48.816;9.230;2024-01-15T09:25:20;8.60;;;6.90;;
4508;SDS011;2267;48.816;9.230;2024-01-15T09:27:47;8.30;;;6.73;;
4508;SDS011;2267;48.816;9.230;2024-01-15T09:30:14;7.80;;;7.10;;
4508;SDS011;2267;48.816;9.230;2024-01-15T09:32:42;7.40;;;6.27;;
4508;SDS011;2267;48.816;9.230;2024-01-15T09:35:09;7.10;;;6.40;;
4508;SDS011;2267;48.816;9.230;2024-01-15T09:37:36;10.60;;;7.27;;
4508;SDS011;2267;48.816;9.230;2024-01-15T09:40:13;9.50;;;7.50;;
4508;SDS011;2267;48.816;9.230;2024-01-15T09:42:42;8.33;;;7.13;;
4508;SDS011;2267;48.816;9.230;2024-01-15T09:45:10;8.07;;;7.27;;
4508;SDS011;2267;48.816;9.230;2024-01-15T09:47:37;8.40;;;7.23;;
4508;SDS011;2267;48.816;9.230;2024-01-15T09:50:10;12.97;;;7.53;;
4508;SDS011;2267;48.816;9.230;2024-01-15T09:52:37;8.27;;;6.70;;
4508;SDS011;2267;48.816;9.230;2024-01-15T09:55:06;9.87;;;6.70;;
4508;SDS011;2267;48.816;9.230;2024-01-15T09:57:36;8.60;;;6.10;;
4508;SDS011;2267;48.816;9.230;2024-01-15T10:00:04;8.03;;;7.33;;
4508;SDS011;2267;48.816;9.230;2024-01-15T10:02:33;7.10;;;6.40;;
4508;SDS011;2267;48.816;9.230;2024-01-15T10:05:01;6.80;;;6.10;;
4508;SDS011;2267;48.816;9.230;2024-01-15T10:07:29;9.30;;;6.80;;
4508;SDS011;2267;48.816;9.230;2024-01-15T10:09:59;6.97;;;6.27;;
4508;SDS011;2267;48.816;9.230;2024-01-15T10:12:26;9.50;;;6.83;;
4508;SDS011;2267;48.816;9.230;2024-01-15T10:14:53;7.83;;;6.90;;
4508;SDS011;2267;48.816;9.230;2024-01-15T10:17:22;10.93;;;7.47;;
4508;SDS011;2267;48.816;9.230;2024-01-15T10:19:50;10.10;;;6.23;;
4508;SDS011;2267;48.816;9.230;2024-01-15T10:22:17;7.53;;;6.10;;
4508;SDS011;2267;48.816;9.230;2024-01-15T10:24:46;9.10;;;6.73;;
4508;SDS011;2267;48.816;9.230;2024-01-15T10:27:14;9.10;;;6.03;;
4508;SDS011;2267;48.816;9.230;2024-01-15T10:29:42;9.27;;;6.93;;
4508;SDS011;2267;48.816;9.230;2024-01-15T10:32:10;6.90;;;6.20;;
4508;SDS011;2267;48.816;9.230;2024-01-15T10:34:38;7.07;;;6.37;;
4508;SDS011;2267;48.816;9.230;2024-01-15T10:37:12;8.33;;;6.17;;
4508;SDS011;2267;48.816;9.230;2024-01-15T10:39:39;11.97;;;6.70;;
4508;SDS011;2267;48.816;9.230;2024-01-15T10:42:06;8.30;;;6.10;;
4508;SDS011;2267;48.816;9.230;2024-01-15T10:44:33;9.10;;;6.00;;
4508;SDS011;2267;48.816;9.230;2024-01-15T10:47:01;13.10;;;6.30;;
4508;SDS011;2267;48.816;9.230;2024-01-15T10:49:28;9.30;;;6.47;;
4508;SDS011;2267;48.816;9.230;2024-01-15T10:52:00;9.13;;;6.33;;
4508;SDS011;2267;48.816;9.230;2024-01-15T10:54:29;9.27;;;5.57;;
4508;SDS011;2267;48.816;9.230;2024-01-15T10:56:56;14.53;;;6.20;;
4508;SDS011;2267;48.816;9.230;2024-01-15T10:59:23;15.50;;;7.07;;
4508;SDS011;2267;48.816;9.230;2024-01-15T11:01:51;15.27;;;5.77;;
4508;SDS011;2267;48.816;9.230;2024-01-15T11:04:23;5.87;;;5.20;;
4508;SDS011;2267;48.816;9.230;2024-01-15T11:06:51;7.73;;;5.37;;
4508;SDS011;2267;48.816;9.230;2024-01-15T11:09:23;7.20;;;5.57;;
4508;SDS011;2267;48.816;9.230;2024-01-15T11:12:06;5.00;;;4.50;;
4508;SDS011;2267;48.816;9.230;2024-01-15T11:17:06;9.40;;;5.70;;
4508;SDS011;2267;48.816;9.230;2024-01-15T11:19:48;5.40;;;4.80;;
4508;SDS011;2267;48.816;9.230;2024-01-15T11:25:14;6.07;;;5.57;;
4508;SDS011;2267;48.816;9.230;2024-01-15T11:27:45;7.00;;;5.40;;
4508;SDS011;2267;48.816;9.230;2024-01-15T11:30:24;5.97;;;5.37;;
4508;SDS011;2267;48.816;9.230;2024-01-15T11:32:52;6.50;;;5.70;;
4508;SDS011;2267;48.816;9.230;2024-01-15T11:35:19;6.00;;;5.40;;
4508;SDS011;2267;48.816;9.230;2024-01-15T11:42:48;6.87;;;6.17;;
4508;SDS011;2267;48.816;9.230;2024-01-15T11:45:18;6.27;;;5.73;;
4508;SDS011;2267;48.816;9.230;2024-01-15T11:50:31;6.70;;;6.10;;
4508;SDS011;2267;48.816;9.230;2024-01-15T11:53:00;8.60;;;7.77;;
4508;SDS011;2267;48.816;9.230;2024-01-15T11:55:36;7.10;;;6.50;;
4508;SDS011;2267;48.816;9.230;2024-01-15T11:58:07;7.17;;;6.40;;
4508;SDS011;2267;48.816;9.230;2024-01-15T12:00:45;7.63;;;6.83;;
4508;SDS011;2267;48.816;9.230;2024-01-15T12:03:14;8.07;;;6.90;;
4508;SDS011;2267;48.816;9.230;2024-01-15T12:05:42;8.10;;;7.30;;
4508;SDS011;2267;48.816;9.230;2024-01-15T12:08:09;7.30;;;6.60;;
4508;SDS011;2267;48.816;9.230;2024-01-15T12:10:39;7.43;;;6.73;;
4508;SDS011;2267;48.816;9.230;2024-01-15T12:13:14;6.80;;;6.10;;
4508;SDS011;2267;48.816;9.230;2024-01-15T12:15:42;7.20;;;5.93;;
4508;SDS011;2267;48.816;9.230;2024-01-15T12:18:12;7.40;;;6.70;;
4508;SDS011;2267;48.816;9.230;2024-01-15T12:20:43;8.63;;;7.00;;
4508;SDS011;2267;48.816;9.230;2024-01-15T12:23:13;7.23;;;6.60;;
4508;SDS011;2267;48.816;9.230;2024-01-15T12:25:40;6.83;;;6.13;;
4508;SDS011;2267;48.816;9.230;2024-01-15T12:28:08;7.10;;;6.40;;
4508;SDS011;2267;48.816;9.230;2024-01-15T12:30:35;6.33;;;5.73;;
4508;SDS011;2267;48.816;9.230;2024-01-15T12:33:03;6.60;;;6.00;;
4508;SDS011;2267;48.816;9.230;2024-01-15T12:35:32;6.70;;;6.00;;
4508;SDS011;2267;48.816;9.230;2024-01-15T12:38:00;7.10;;;6.33;;
4508;SDS011;2267;48.816;9.230;2024-01-15T12:40:31;5.80;;;5.30;;
4508;SDS011;2267;48.816;9.230;2024-01-15T12:43:02;7.37;;;6.13;;
4508;SDS011;2267;48.816;9.230;2024-01-15T12:45:30;6.93;;;6.33;;
4508;SDS011;2267;48.816;9.230;2024-01-15T12:47:58;7.23;;;6.53;;
4508;SDS011;2267;48.816;9.230;2024-01-15T12:50:26;7.70;;;6.93;;
4508;SDS011;2267;48.816;9.230;2024-01-15T12:52:53;6.70;;;5.93;;
4508;SDS011;2267;48.816;9.230;2024-01-15T12:55:20;7.70;;;7.00;;
4508;SDS011;2267;48.816;9.230;2024-01-15T12:57:47;8.37;;;6.87;;
4508;SDS011;2267;48.816;9.230;2024-01-15T13:00:16;6.67;;;6.07;;
4508;SDS011;2267;48.816;9.230;2024-01-15T13:02:43;8.33;;;7.43;;
4508;SDS011;2267;48.816;9.230;2024-01-15T13:05:10;6.90;;;6.30;;
4508;SDS011;2267;48.816;9.230;2024-01-15T13:07:40;7.80;;;7.00;;
4508;SDS011;2267;48.816;9.230;2024-01-15T13:10:07;7.03;;;6.20;;
4508;SDS011;2267;48.816;9.230;2024-01-15T13:12:38;7.17;;;6.47;;
4508;SDS011;2267;48.816;9.230;2024-01-15T13:15:06;7.67;;;6.83;;
4508;SDS011;2267;48.816;9.230;2024-01-15T13:17:40;8.17;;;6.37;;
4508;SDS011;2267;48.816;9.230;2024-01-15T13:20:07;6.47;;;5.87;;
4508;SDS011;2267;48.816;9.230;2024-01-15T13:22:35;5.93;;;5.43;;
4508;SDS011;2267;48.816;9.230;2024-01-15T13:25:05;6.70;;;6.00;;
4508;SDS011;2267;48.816;9.230;2024-01-15T13:27:34;6.93;;;5.90;;
4508;SDS011;2267;48.816;9.230;2024-01-15T13:30:02;6.40;;;5.83;;
4508;SDS011;2267;48.816;9.230;2024-01-15T13:32:30;6.07;;;5.47;;
4508;SDS011;2267;48.816;9.230;2024-01-15T13:34:57;6.83;;;6.10;;
4508;SDS011;2267;48.816;9.230;2024-01-15T13:37:24;5.57;;;5.00;;
4508;SDS011;2267;48.816;9.230;2024-01-15T13:39:51;6.80;;;5.97;;
4508;SDS011;2267;48.816;9.230;2024-01-15T13:42:19;5.80;;;5.30;;
4508;SDS011;2267;48.816;9.230;2024-01-15T13:44:50;6.70;;;5.37;;
4508;SDS011;2267;48.816;9.230;2024-01-15T13:47:17;6.17;;;5.67;;
4508;SDS011;2267;48.816;9.230;2024-01-15T13:49:44;6.80;;;6.20;;
4508;SDS011;2267;48.816;9.230;2024-01-15T13:52:11;5.00;;;4.57;;
4508;SDS011;2267;48.816;9.230;2024-01-15T13:54:39;4.80;;;4.40;;
4508;SDS011;2267;48.816;9.230;2024-01-15T13:57:16;4.40;;;4.00;;
4508;SDS011;2267;48.816;9.230;2024-01-15T13:59:45;4.73;;;4.33;;
4508;SDS011;2267;48.816;9.230;2024-01-15T14:02:12;4.07;;;3.77;;
4508;SDS011;2267;48.816;9.230;2024-01-15T14:04:42;4.37;;;3.80;;
4508;SDS011;2267;48.816;9.230;2024-01-15T14:07:09;4.50;;;4.10;;
4508;SDS011;2267;48.816;9.230;2024-01-15T14:09:36;5.43;;;4.93;;
4508;SDS011;2267;48.816;9.230;2024-01-15T14:12:04;6.33;;;5.37;;
4508;SDS011;2267;48.816;9.230;2024-01-15T14:14:32;6.47;;;5.87;;
4508;SDS011;2267;48.816;9.230;2024-01-15T14:17:00;6.00;;;5.50;;
4508;SDS011;2267;48.816;9.230;2024-01-15T14:19:27;5.03;;;4.63;;
4508;SDS011;2267;48.816;9.230;2024-01-15T14:21:54;5.00;;;4.60;;
4508;SDS011;2267;48.816;9.230;2024-01-15T14:24:21;5.30;;;4.80;;
4508;SDS011;2267;48.816;9.230;2024-01-15T14:26:48;6.03;;;4.70;;
4508;SDS011;2267;48.816;9.230;2024-01-15T14:29:15;6.03;;;4.87;;
4508;SDS011;2267;48.816;9.230;2024-01-15T14:31:42;5.70;;;5.20;;
4508;SDS011;2267;48.816;9.230;2024-01-15T14:34:09;5.40;;;4.90;;
4508;SDS011;2267;48.816;9.230;2024-01-15T14:36:37;5.20;;;4.70;;
4508;SDS011;2267;48.816;9.230;2024-01-15T14:39:04;6.87;;;6.27;;
4508;SDS011;2267;48.816;9.230;2024-01-15T14:41:31;8.53;;;7.73;;
4508;SDS011;2267;48.816;9.230;2024-01-15T14:43:58;7.63;;;6.93;;
4508;SDS011;2267;48.816;9.230;2024-01-15T14:46:25;7.47;;;6.83;;
4508;SDS011;2267;48.816;9.230;2024-01-15T14:48:53;6.87;;;6.37;;
4508;SDS011;2267;48.816;9.230;2024-01-15T14:51:20;7.47;;;6.87;;
4508;SDS011;2267;48.816;9.230;2024-01-15T14:53:47;7.63;;;6.97;;
4508;SDS011;2267;48.816;9.230;2024-01-15T14:56:14;8.37;;;7.67;;
4508;SDS011;2267;48.816;9.230;2024-01-15T14:58:44;7.67;;;7.07;;
4508;SDS011;2267;48.816;9.230;2024-01-15T15:01:10;8.40;;;7.60;;
4508;SDS011;2267;48.816;9.230;2024-01-15T15:03:39;8.53;;;7.83;;
4508;SDS011;2267;48.816;9.230;2024-01-15T15:06:06;9.10;;;8.30;;
4508;SDS011;2267;48.816;9.230;2024-01-15T15:08:35;10.33;;;9.43;;
4508;SDS011;2267;48.816;9.230;2024-01-15T15:11:03;9.10;;;8.30;;
4508;SDS011;2267;48.816;9.230;2024-01-15T15:13:30;8.27;;;7.63;;
4508;SDS011;2267;48.816;9.230;2024-01-15T15:16:10;9.43;;;8.70;;